sensor_id;sensor_type;location;lat;lon;timestamp;P1;durP1;ratioP1;P2;durP2;ratioP2
11287;SDS011;5700;50.996;7.044;2022-12-07T00:02:24;24.98;;;13.05;;
11287;SDS011;5700;50.996;7.044;2022-12-07T00:05:26;24.23;;;13.23;;
11287;SDS011;5700;50.996;7.044;2022-12-07T00:08:27;20.75;;;11.07;;
11287;SDS011;5700;50.996;7.044;2022-12-07T00:11:28;23.23;;;12.13;;
11287;SDS011;5700;50.996;7.044;2022-12-07T00:14:30;24.73;;;12.50;;
11287;SDS011;5700;50.996;7.044;2022-12-07T00:17:33;24.70;;;12.63;;
11287;SDS011;5700;50.996;7.044;2022-12-07T00:20:34;24.05;;;12.73;;
11287;SDS011;5700;50.996;7.044;2022-12-07T00:23:36;27.50;;;12.98;;
11287;SDS011;5700;50.996;7.044;2022-12-07T00:26:38;23.98;;;12.32;;
11287;SDS011;5700;50.996;7.044;2022-12-07T00:29:40;24.60;;;12.30;;
11287;SDS011;5700;50.996;7.044;2022-12-07T00:32:43;29.42;;;13.98;;
11287;SDS011;5700;50.996;7.044;2022-12-07T00:35:44;23.00;;;12.05;;
11287;SDS011;5700;50.996;7.044;2022-12-07T00:38:45;23.20;;;12.57;;
11287;SDS011;5700;50.996;7.044;2022-12-07T00:41:47;25.58;;;12.15;;
11287;SDS011;5700;50.996;7.044;2022-12-07T00:44:48;23.05;;;12.57;;
11287;SDS011;5700;50.996;7.044;2022-12-07T00:47:51;23.45;;;13.15;;
11287;SDS011;5700;50.996;7.044;2022-12-07T00:50:53;27.17;;;12.70;;
11287;SDS011;5700;50.996;7.044;2022-12-07T00:53:54;24.42;;;12.88;;
11287;SDS011;5700;50.996;7.044;2022-12-07T00:56:56;24.30;;;13.25;;
11287;SDS011;5700;50.996;7.044;2022-12-07T00:59:57;25.88;;;12.73;;
11287;SDS011;5700;50.996;7.044;2022-12-07T01:03:01;26.45;;;14.25;;
11287;SDS011;5700;50.996;7.044;2022-12-07T01:06:03;25.80;;;12.18;;
11287;SDS011;5700;50.996;7.044;2022-12-07T01:09:05;24.33;;;12.88;;
11287;SDS011;5700;50.996;7.044;2022-12-07T01:12:06;25.83;;;13.55;;
11287;SDS011;5700;50.996;7.044;2022-12-07T01:15:08;24.08;;;12.52;;
11287;SDS011;5700;50.996;7.044;2022-12-07T01:18:11;28.42;;;13.27;;
11287;SDS011;5700;50.996;7.044;2022-12-07T01:21:13;22.48;;;13.43;;
11287;SDS011;5700;50.996;7.044;2022-12-07T01:24:15;22.65;;;13.57;;
11287;SDS011;5700;50.996;7.044;2022-12-07T01:27:17;24.77;;;13.90;;
11287;SDS011;5700;50.996;7.044;2022-12-07T01:30:18;28.20;;;14.05;;
11287;SDS011;5700;50.996;7.044;2022-12-07T01:33:21;27.85;;;14.18;;
11287;SDS011;5700;50.996;7.044;2022-12-07T01:36:23;25.33;;;13.75;;
11287;SDS011;5700;50.996;7.044;2022-12-07T01:39:25;22.85;;;12.75;;
11287;SDS011;5700;50.996;7.044;2022-12-07T01:42:27;25.05;;;13.80;;
11287;SDS011;5700;50.996;7.044;2022-12-07T01:45:36;28.58;;;14.35;;
11287;SDS011;5700;50.996;7.044;2022-12-07T01:48:41;30.08;;;13.60;;
11287;SDS011;5700;50.996;7.044;2022-12-07T01:51:43;33.72;;;14.50;;
11287;SDS011;5700;50.996;7.044;2022-12-07T01:54:46;29.13;;;15.48;;
11287;SDS011;5700;50.996;7.044;2022-12-07T01:57:49;29.38;;;14.98;;
11287;SDS011;5700;50.996;7.044;2022-12-07T02:00:52;28.50;;;15.45;;
11287;SDS011;5700;50.996;7.044;2022-12-07T02:03:54;25.48;;;14.30;;
11287;SDS011;5700;50.996;7.044;2022-12-07T02:06:56;27.23;;;14.25;;
11287;SDS011;5700;50.996;7.044;2022-12-07T02:10:11;28.67;;;15.52;;
11287;SDS011;5700;50.996;7.044;2022-12-07T02:13:14;24.20;;;13.18;;
11287;SDS011;5700;50.996;7.044;2022-12-07T02:16:21;22.90;;;13.60;;
11287;SDS011;5700;50.996;7.044;2022-12-07T02:19:42;26.30;;;14.70;;
11287;SDS011;5700;50.996;7.044;2022-12-07T02:23:12;25.92;;;13.90;;
11287;SDS011;5700;50.996;7.044;2022-12-07T02:29:58;26.35;;;13.85;;
11287;SDS011;5700;50.996;7.044;2022-12-07T02:33:03;27.25;;;15.13;;
11287;SDS011;5700;50.996;7.044;2022-12-07T02:36:15;25.30;;;13.93;;
11287;SDS011;5700;50.996;7.044;2022-12-07T02:39:20;25.58;;;14.07;;
11287;SDS011;5700;50.996;7.044;2022-12-07T02:42:27;22.48;;;12.75;;
11287;SDS011;5700;50.996;7.044;2022-12-07T02:45:33;27.60;;;15.50;;
11287;SDS011;5700;50.996;7.044;2022-12-07T02:48:36;28.55;;;13.90;;
11287;SDS011;5700;50.996;7.044;2022-12-07T02:51:39;27.08;;;14.98;;
11287;SDS011;5700;50.996;7.044;2022-12-07T02:54:42;25.42;;;14.70;;
11287;SDS011;5700;50.996;7.044;2022-12-07T02:57:57;25.98;;;14.52;;
11287;SDS011;5700;50.996;7.044;2022-12-07T03:01:20;26.83;;;14.75;;
11287;SDS011;5700;50.996;7.044;2022-12-07T03:04:31;31.25;;;15.80;;
11287;SDS011;5700;50.996;7.044;2022-12-07T03:07:39;27.88;;;15.35;;
11287;SDS011;5700;50.996;7.044;2022-12-07T03:10:47;31.58;;;16.73;;
11287;SDS011;5700;50.996;7.044;2022-12-07T03:13:54;31.45;;;16.67;;
11287;SDS011;5700;50.996;7.044;2022-12-07T03:17:02;28.92;;;16.08;;
11287;SDS011;5700;50.996;7.044;2022-12-07T03:20:08;29.63;;;17.55;;
11287;SDS011;5700;50.996;7.044;2022-12-07T03:23:11;24.90;;;14.75;;
11287;SDS011;5700;50.996;7.044;2022-12-07T03:26:13;33.63;;;16.80;;
11287;SDS011;5700;50.996;7.044;2022-12-07T03:29:17;33.88;;;18.58;;
11287;SDS011;5700;50.996;7.044;2022-12-07T03:32:23;30.95;;;17.33;;
11287;SDS011;5700;50.996;7.044;2022-12-07T03:35:28;32.20;;;16.83;;
11287;SDS011;5700;50.996;7.044;2022-12-07T03:38:33;30.58;;;17.65;;
11287;SDS011;5700;50.996;7.044;2022-12-07T03:41:37;33.13;;;17.52;;
11287;SDS011;5700;50.996;7.044;2022-12-07T03:44:39;35.03;;;17.63;;
11287;SDS011;5700;50.996;7.044;2022-12-07T03:47:45;29.65;;;15.90;;
11287;SDS011;5700;50.996;7.044;2022-12-07T03:50:50;33.03;;;18.05;;
11287;SDS011;5700;50.996;7.044;2022-12-07T03:53:54;35.60;;;17.20;;
11287;SDS011;5700;50.996;7.044;2022-12-07T03:56:59;34.05;;;17.35;;
11287;SDS011;5700;50.996;7.044;2022-12-07T04:00:03;31.02;;;16.77;;
11287;SDS011;5700;50.996;7.044;2022-12-07T04:03:07;30.02;;;16.58;;
11287;SDS011;5700;50.996;7.044;2022-12-07T04:06:08;31.13;;;17.17;;
11287;SDS011;5700;50.996;7.044;2022-12-07T04:09:10;33.10;;;17.40;;
11287;SDS011;5700;50.996;7.044;2022-12-07T04:12:11;28.80;;;16.45;;
11287;SDS011;5700;50.996;7.044;2022-12-07T04:15:12;31.75;;;17.00;;
11287;SDS011;5700;50.996;7.044;2022-12-07T04:18:15;33.08;;;16.58;;
11287;SDS011;5700;50.996;7.044;2022-12-07T04:21:16;30.17;;;15.63;;
11287;SDS011;5700;50.996;7.044;2022-12-07T04:24:18;43.05;;;19.30;;
11287;SDS011;5700;50.996;7.044;2022-12-07T04:27:20;31.63;;;16.88;;
11287;SDS011;5700;50.996;7.044;2022-12-07T04:30:21;34.50;;;17.38;;
11287;SDS011;5700;50.996;7.044;2022-12-07T04:33:24;32.80;;;17.30;;
11287;SDS011;5700;50.996;7.044;2022-12-07T04:36:25;29.80;;;16.35;;
11287;SDS011;5700;50.996;7.044;2022-12-07T04:39:27;30.10;;;16.30;;
11287;SDS011;5700;50.996;7.044;2022-12-07T04:42:30;28.67;;;16.30;;
11287;SDS011;5700;50.996;7.044;2022-12-07T04:45:31;32.47;;;17.40;;
11287;SDS011;5700;50.996;7.044;2022-12-07T04:48:34;30.33;;;17.17;;
11287;SDS011;5700;50.996;7.044;2022-12-07T04:51:35;34.90;;;17.92;;
11287;SDS011;5700;50.996;7.044;2022-12-07T04:54:36;28.50;;;16.30;;
11287;SDS011;5700;50.996;7.044;2022-12-07T04:57:38;34.47;;;17.48;;
11287;SDS011;5700;50.996;7.044;2022-12-07T05:00:39;31.58;;;17.65;;
11287;SDS011;5700;50.996;7.044;2022-12-07T05:03:42;31.75;;;16.67;;
11287;SDS011;5700;50.996;7.044;2022-12-07T05:06:43;29.73;;;16.33;;
11287;SDS011;5700;50.996;7.044;2022-12-07T05:09:45;29.13;;;15.57;;
11287;SDS011;5700;50.996;7.044;2022-12-07T05:12:46;30.67;;;16.95;;
11287;SDS011;5700;50.996;7.044;2022-12-07T05:15:48;37.42;;;18.63;;
11287;SDS011;5700;50.996;7.044;2022-12-07T05:18:51;30.70;;;17.17;;
11287;SDS011;5700;50.996;7.044;2022-12-07T05:21:52;32.97;;;17.88;;
11287;SDS011;5700;50.996;7.044;2022-12-07T05:24:53;30.98;;;16.77;;
11287;SDS011;5700;50.996;7.044;2022-12-07T05:27:55;33.53;;;17.02;;
11287;SDS011;5700;50.996;7.044;2022-12-07T05:30:57;30.35;;;16.15;;
11287;SDS011;5700;50.996;7.044;2022-12-07T05:33:59;31.52;;;16.55;;
11287;SDS011;5700;50.996;7.044;2022-12-07T05:37:01;40.58;;;17.70;;
11287;SDS011;5700;50.996;7.044;2022-12-07T05:40:02;38.15;;;18.40;;
11287;SDS011;5700;50.996;7.044;2022-12-07T05:43:04;33.28;;;16.45;;
11287;SDS011;5700;50.996;7.044;2022-12-07T05:46:06;30.98;;;15.90;;
11287;SDS011;5700;50.996;7.044;2022-12-07T05:49:08;34.78;;;16.92;;
11287;SDS011;5700;50.996;7.044;2022-12-07T05:52:10;32.85;;;16.08;;
11287;SDS011;5700;50.996;7.044;2022-12-07T05:55:11;35.85;;;17.55;;
11287;SDS011;5700;50.996;7.044;2022-12-07T05:58:13;33.92;;;17.13;;
11287;SDS011;5700;50.996;7.044;2022-12-07T06:01:28;32.55;;;16.70;;
11287;SDS011;5700;50.996;7.044;2022-12-07T06:04:31;33.53;;;16.13;;
11287;SDS011;5700;50.996;7.044;2022-12-07T06:07:34;28.13;;;15.45;;
11287;SDS011;5700;50.996;7.044;2022-12-07T06:10:35;28.73;;;15.70;;
11287;SDS011;5700;50.996;7.044;2022-12-07T06:13:36;26.33;;;14.90;;
11287;SDS011;5700;50.996;7.044;2022-12-07T06:16:37;28.63;;;14.63;;
11287;SDS011;5700;50.996;7.044;2022-12-07T06:19:39;29.58;;;14.77;;
11287;SDS011;5700;50.996;7.044;2022-12-07T06:22:41;25.58;;;12.57;;
11287;SDS011;5700;50.996;7.044;2022-12-07T06:25:44;29.15;;;14.00;;
11287;SDS011;5700;50.996;7.044;2022-12-07T06:28:46;26.25;;;14.13;;
11287;SDS011;5700;50.996;7.044;2022-12-07T06:31:47;23.73;;;13.73;;
11287;SDS011;5700;50.996;7.044;2022-12-07T06:34:50;33.13;;;16.08;;
11287;SDS011;5700;50.996;7.044;2022-12-07T06:37:51;25.60;;;12.80;;
11287;SDS011;5700;50.996;7.044;2022-12-07T06:40:53;28.15;;;14.23;;
11287;SDS011;5700;50.996;7.044;2022-12-07T06:43:54;23.25;;;13.15;;
11287;SDS011;5700;50.996;7.044;2022-12-07T06:46:56;31.58;;;16.70;;
11287;SDS011;5700;50.996;7.044;2022-12-07T06:49:58;29.23;;;15.68;;
11287;SDS011;5700;50.996;7.044;2022-12-07T06:53:00;33.00;;;16.92;;
11287;SDS011;5700;50.996;7.044;2022-12-07T06:56:01;33.15;;;19.38;;
11287;SDS011;5700;50.996;7.044;2022-12-07T06:59:03;28.88;;;15.23;;
11287;SDS011;5700;50.996;7.044;2022-12-07T07:02:07;23.15;;;12.68;;
11287;SDS011;5700;50.996;7.044;2022-12-07T07:05:10;24.20;;;13.27;;
11287;SDS011;5700;50.996;7.044;2022-12-07T07:08:12;24.73;;;13.25;;
11287;SDS011;5700;50.996;7.044;2022-12-07T07:11:14;26.75;;;13.93;;
11287;SDS011;5700;50.996;7.044;2022-12-07T07:14:15;24.48;;;12.60;;
11287;SDS011;5700;50.996;7.044;2022-12-07T07:17:19;25.92;;;14.27;;
11287;SDS011;5700;50.996;7.044;2022-12-07T07:20:21;23.40;;;13.35;;
11287;SDS011;5700;50.996;7.044;2022-12-07T07:23:23;27.48;;;13.43;;
11287;SDS011;5700;50.996;7.044;2022-12-07T07:26:25;27.02;;;13.80;;
11287;SDS011;5700;50.996;7.044;2022-12-07T07:29:26;24.63;;;13.85;;
11287;SDS011;5700;50.996;7.044;2022-12-07T07:32:27;23.25;;;13.48;;
11287;SDS011;5700;50.996;7.044;2022-12-07T07:35:30;21.38;;;13.15;;
11287;SDS011;5700;50.996;7.044;2022-12-07T07:38:33;26.08;;;13.43;;
11287;SDS011;5700;50.996;7.044;2022-12-07T07:41:34;25.98;;;14.75;;
11287;SDS011;5700;50.996;7.044;2022-12-07T07:44:36;29.15;;;13.57;;
11287;SDS011;5700;50.996;7.044;2022-12-07T07:47:37;26.98;;;15.05;;
11287;SDS011;5700;50.996;7.044;2022-12-07T07:50:40;32.22;;;15.88;;
11287;SDS011;5700;50.996;7.044;2022-12-07T07:53:41;30.33;;;14.75;;
11287;SDS011;5700;50.996;7.044;2022-12-07T07:56:42;29.10;;;14.43;;
11287;SDS011;5700;50.996;7.044;2022-12-07T07:59:44;28.67;;;14.65;;
11287;SDS011;5700;50.996;7.044;2022-12-07T08:02:45;27.48;;;14.50;;
11287;SDS011;5700;50.996;7.044;2022-12-07T08:05:48;29.85;;;15.88;;
11287;SDS011;5700;50.996;7.044;2022-12-07T08:08:49;28.40;;;15.90;;
11287;SDS011;5700;50.996;7.044;2022-12-07T08:11:51;28.38;;;16.77;;
11287;SDS011;5700;50.996;7.044;2022-12-07T08:14:52;27.20;;;15.50;;
11287;SDS011;5700;50.996;7.044;2022-12-07T08:17:53;25.90;;;15.30;;
11287;SDS011;5700;50.996;7.044;2022-12-07T08:20:59;33.85;;;17.13;;
11287;SDS011;5700;50.996;7.044;2022-12-07T08:24:01;27.58;;;15.85;;
11287;SDS011;5700;50.996;7.044;2022-12-07T08:27:03;33.90;;;18.77;;
11287;SDS011;5700;50.996;7.044;2022-12-07T08:30:04;28.88;;;15.77;;
11287;SDS011;5700;50.996;7.044;2022-12-07T08:33:06;32.13;;;16.05;;
11287;SDS011;5700;50.996;7.044;2022-12-07T08:36:10;31.63;;;17.75;;
11287;SDS011;5700;50.996;7.044;2022-12-07T08:39:12;26.67;;;14.63;;
11287;SDS011;5700;50.996;7.044;2022-12-07T08:42:14;31.30;;;14.68;;
11287;SDS011;5700;50.996;7.044;2022-12-07T08:45:16;25.98;;;15.02;;
11287;SDS011;5700;50.996;7.044;2022-12-07T08:48:18;25.50;;;15.02;;
11287;SDS011;5700;50.996;7.044;2022-12-07T08:51:25;29.40;;;17.05;;
11287;SDS011;5700;50.996;7.044;2022-12-07T08:54:26;30.17;;;16.05;;
11287;SDS011;5700;50.996;7.044;2022-12-07T08:57:29;32.80;;;17.35;;
11287;SDS011;5700;50.996;7.044;2022-12-07T09:00:30;33.28;;;15.65;;
11287;SDS011;5700;50.996;7.044;2022-12-07T09:03:32;27.88;;;15.27;;
11287;SDS011;5700;50.996;7.044;2022-12-07T09:06:35;28.75;;;16.52;;
11287;SDS011;5700;50.996;7.044;2022-12-07T09:09:36;30.42;;;16.33;;
11287;SDS011;5700;50.996;7.044;2022-12-07T09:12:37;25.98;;;14.82;;
11287;SDS011;5700;50.996;7.044;2022-12-07T09:15:39;29.13;;;15.25;;
11287;SDS011;5700;50.996;7.044;2022-12-07T09:18:40;23.50;;;14.18;;
11287;SDS011;5700;50.996;7.044;2022-12-07T09:21:43;25.45;;;14.93;;
11287;SDS011;5700;50.996;7.044;2022-12-07T09:24:45;28.20;;;15.00;;
11287;SDS011;5700;50.996;7.044;2022-12-07T09:27:46;30.40;;;15.13;;
11287;SDS011;5700;50.996;7.044;2022-12-07T09:30:48;24.75;;;14.27;;
11287;SDS011;5700;50.996;7.044;2022-12-07T09:33:52;25.40;;;13.80;;
11287;SDS011;5700;50.996;7.044;2022-12-07T09:36:56;23.92;;;13.15;;
11287;SDS011;5700;50.996;7.044;2022-12-07T09:39:57;24.98;;;13.85;;
11287;SDS011;5700;50.996;7.044;2022-12-07T09:42:58;22.35;;;12.30;;
11287;SDS011;5700;50.996;7.044;2022-12-07T09:46:00;19.55;;;11.88;;
11287;SDS011;5700;50.996;7.044;2022-12-07T09:49:01;23.48;;;12.57;;
11287;SDS011;5700;50.996;7.044;2022-12-07T09:52:16;23.92;;;13.18;;
11287;SDS011;5700;50.996;7.044;2022-12-07T09:55:20;24.65;;;12.25;;
11287;SDS011;5700;50.996;7.044;2022-12-07T09:58:24;20.73;;;12.80;;
11287;SDS011;5700;50.996;7.044;2022-12-07T10:01:29;24.17;;;12.95;;
11287;SDS011;5700;50.996;7.044;2022-12-07T10:04:31;22.85;;;12.85;;
11287;SDS011;5700;50.996;7.044;2022-12-07T10:07:34;19.75;;;11.32;;
11287;SDS011;5700;50.996;7.044;2022-12-07T10:10:35;19.33;;;11.05;;
11287;SDS011;5700;50.996;7.044;2022-12-07T10:13:39;20.35;;;10.90;;
11287;SDS011;5700;50.996;7.044;2022-12-07T10:16:42;20.70;;;10.52;;
11287;SDS011;5700;50.996;7.044;2022-12-07T10:19:43;28.15;;;10.07;;
11287;SDS011;5700;50.996;7.044;2022-12-07T10:22:54;16.65;;;9.00;;
11287;SDS011;5700;50.996;7.044;2022-12-07T10:25:57;17.85;;;9.35;;
11287;SDS011;5700;50.996;7.044;2022-12-07T10:28:59;18.60;;;9.70;;
11287;SDS011;5700;50.996;7.044;2022-12-07T10:32:05;17.55;;;9.38;;
11287;SDS011;5700;50.996;7.044;2022-12-07T10:38:27;17.02;;;9.07;;
11287;SDS011;5700;50.996;7.044;2022-12-07T10:41:30;15.35;;;9.18;;
11287;SDS011;5700;50.996;7.044;2022-12-07T10:44:32;17.45;;;8.82;;
11287;SDS011;5700;50.996;7.044;2022-12-07T10:47:34;17.38;;;8.90;;
11287;SDS011;5700;50.996;7.044;2022-12-07T10:50:43;15.25;;;8.25;;
11287;SDS011;5700;50.996;7.044;2022-12-07T10:53:54;18.13;;;8.65;;
11287;SDS011;5700;50.996;7.044;2022-12-07T10:57:03;13.18;;;7.47;;
11287;SDS011;5700;50.996;7.044;2022-12-07T11:00:13;16.83;;;8.52;;
11287;SDS011;5700;50.996;7.044;2022-12-07T11:03:23;14.55;;;7.75;;
11287;SDS011;5700;50.996;7.044;2022-12-07T11:06:32;15.27;;;7.68;;
11287;SDS011;5700;50.996;7.044;2022-12-07T11:13:00;19.20;;;8.52;;
11287;SDS011;5700;50.996;7.044;2022-12-07T11:16:14;15.00;;;7.82;;
11287;SDS011;5700;50.996;7.044;2022-12-07T11:19:23;14.13;;;7.18;;
11287;SDS011;5700;50.996;7.044;2022-12-07T11:22:36;12.00;;;6.60;;
11287;SDS011;5700;50.996;7.044;2022-12-07T11:25:44;12.88;;;6.88;;
11287;SDS011;5700;50.996;7.044;2022-12-07T11:28:56;9.73;;;4.85;;
11287;SDS011;5700;50.996;7.044;2022-12-07T11:32:09;13.73;;;6.53;;
11287;SDS011;5700;50.996;7.044;2022-12-07T11:35:18;11.30;;;5.88;;
11287;SDS011;5700;50.996;7.044;2022-12-07T11:38:27;13.82;;;5.50;;
11287;SDS011;5700;50.996;7.044;2022-12-07T11:41:36;12.07;;;5.35;;
11287;SDS011;5700;50.996;7.044;2022-12-07T11:44:44;14.45;;;5.40;;
11287;SDS011;5700;50.996;7.044;2022-12-07T11:47:51;11.13;;;5.25;;
11287;SDS011;5700;50.996;7.044;2022-12-07T11:50:56;9.98;;;4.72;;
11287;SDS011;5700;50.996;7.044;2022-12-07T11:53:59;11.23;;;4.97;;
11287;SDS011;5700;50.996;7.044;2022-12-07T11:57:09;15.90;;;5.35;;
11287;SDS011;5700;50.996;7.044;2022-12-07T12:00:14;10.55;;;5.55;;
11287;SDS011;5700;50.996;7.044;2022-12-07T12:03:19;13.38;;;5.60;;
11287;SDS011;5700;50.996;7.044;2022-12-07T12:06:23;12.50;;;5.65;;
11287;SDS011;5700;50.996;7.044;2022-12-07T12:09:26;12.35;;;5.88;;
11287;SDS011;5700;50.996;7.044;2022-12-07T12:12:36;10.57;;;5.43;;
11287;SDS011;5700;50.996;7.044;2022-12-07T12:15:51;10.02;;;5.07;;
11287;SDS011;5700;50.996;7.044;2022-12-07T12:19:07;16.77;;;6.00;;
11287;SDS011;5700;50.996;7.044;2022-12-07T12:22:19;11.63;;;5.97;;
11287;SDS011;5700;50.996;7.044;2022-12-07T12:25:22;13.43;;;5.60;;
11287;SDS011;5700;50.996;7.044;2022-12-07T12:28:28;14.85;;;6.45;;
11287;SDS011;5700;50.996;7.044;2022-12-07T12:31:33;11.80;;;5.63;;
11287;SDS011;5700;50.996;7.044;2022-12-07T12:34:38;11.43;;;5.88;;
11287;SDS011;5700;50.996;7.044;2022-12-07T12:37:41;13.48;;;6.20;;
11287;SDS011;5700;50.996;7.044;2022-12-07T12:40:44;13.00;;;6.63;;
11287;SDS011;5700;50.996;7.044;2022-12-07T12:43:48;13.00;;;6.75;;
11287;SDS011;5700;50.996;7.044;2022-12-07T12:46:52;15.48;;;7.13;;
11287;SDS011;5700;50.996;7.044;2022-12-07T12:53:19;17.58;;;7.18;;
11287;SDS011;5700;50.996;7.044;2022-12-07T12:56:27;15.52;;;7.45;;
11287;SDS011;5700;50.996;7.044;2022-12-07T12:59:35;13.85;;;7.10;;
11287;SDS011;5700;50.996;7.044;2022-12-07T13:02:38;12.40;;;6.50;;
11287;SDS011;5700;50.996;7.044;2022-12-07T13:05:49;13.80;;;6.85;;
11287;SDS011;5700;50.996;7.044;2022-12-07T13:09:25;14.70;;;6.45;;
11287;SDS011;5700;50.996;7.044;2022-12-07T13:12:28;11.95;;;7.18;;
11287;SDS011;5700;50.996;7.044;2022-12-07T13:15:33;14.00;;;7.00;;
11287;SDS011;5700;50.996;7.044;2022-12-07T13:18:37;13.40;;;6.55;;
11287;SDS011;5700;50.996;7.044;2022-12-07T13:21:42;11.25;;;5.53;;
11287;SDS011;5700;50.996;7.044;2022-12-07T13:24:45;13.05;;;5.93;;
11287;SDS011;5700;50.996;7.044;2022-12-07T13:27:48;11.82;;;5.93;;
11287;SDS011;5700;50.996;7.044;2022-12-07T13:31:00;10.25;;;5.15;;
11287;SDS011;5700;50.996;7.044;2022-12-07T13:34:28;10.90;;;4.75;;
11287;SDS011;5700;50.996;7.044;2022-12-07T13:37:31;11.50;;;4.63;;
11287;SDS011;5700;50.996;7.044;2022-12-07T13:40:33;12.38;;;4.35;;
11287;SDS011;5700;50.996;7.044;2022-12-07T13:43:42;11.38;;;4.53;;
11287;SDS011;5700;50.996;7.044;2022-12-07T13:46:47;8.80;;;4.18;;
11287;SDS011;5700;50.996;7.044;2022-12-07T13:49:52;13.73;;;5.47;;
11287;SDS011;5700;50.996;7.044;2022-12-07T13:52:54;16.33;;;6.03;;
11287;SDS011;5700;50.996;7.044;2022-12-07T13:55:56;12.48;;;6.65;;
11287;SDS011;5700;50.996;7.044;2022-12-07T13:58:58;12.13;;;6.32;;
11287;SDS011;5700;50.996;7.044;2022-12-07T14:02:01;15.40;;;6.72;;
11287;SDS011;5700;50.996;7.044;2022-12-07T14:05:07;14.63;;;7.43;;
11287;SDS011;5700;50.996;7.044;2022-12-07T14:08:21;17.80;;;8.25;;
11287;SDS011;5700;50.996;7.044;2022-12-07T14:11:23;13.73;;;8.50;;
11287;SDS011;5700;50.996;7.044;2022-12-07T14:14:30;16.95;;;9.63;;
11287;SDS011;5700;50.996;7.044;2022-12-07T14:17:34;16.85;;;9.52;;
11287;SDS011;5700;50.996;7.044;2022-12-07T14:20:36;15.95;;;8.07;;
11287;SDS011;5700;50.996;7.044;2022-12-07T14:23:39;16.55;;;9.52;;
11287;SDS011;5700;50.996;7.044;2022-12-07T14:26:41;22.30;;;11.05;;
11287;SDS011;5700;50.996;7.044;2022-12-07T14:29:42;23.00;;;13.50;;
11287;SDS011;5700;50.996;7.044;2022-12-07T14:32:45;17.40;;;8.63;;
11287;SDS011;5700;50.996;7.044;2022-12-07T14:35:48;12.70;;;7.32;;
11287;SDS011;5700;50.996;7.044;2022-12-07T14:38:50;29.40;;;14.48;;
11287;SDS011;5700;50.996;7.044;2022-12-07T14:41:54;18.77;;;9.73;;
11287;SDS011;5700;50.996;7.044;2022-12-07T14:44:56;17.90;;;10.40;;
11287;SDS011;5700;50.996;7.044;2022-12-07T14:47:59;22.20;;;10.32;;
11287;SDS011;5700;50.996;7.044;2022-12-07T14:51:00;21.77;;;10.70;;
11287;SDS011;5700;50.996;7.044;2022-12-07T14:54:02;17.50;;;7.63;;
11287;SDS011;5700;50.996;7.044;2022-12-07T14:57:04;15.30;;;8.32;;
11287;SDS011;5700;50.996;7.044;2022-12-07T15:00:06;26.27;;;13.82;;
11287;SDS011;5700;50.996;7.044;2022-12-07T15:03:10;16.67;;;8.90;;
11287;SDS011;5700;50.996;7.044;2022-12-07T15:06:13;18.83;;;9.05;;
11287;SDS011;5700;50.996;7.044;2022-12-07T15:09:15;19.80;;;9.35;;
11287;SDS011;5700;50.996;7.044;2022-12-07T15:12:17;15.45;;;7.00;;
11287;SDS011;5700;50.996;7.044;2022-12-07T15:15:18;13.20;;;7.03;;
11287;SDS011;5700;50.996;7.044;2022-12-07T15:18:21;21.00;;;10.18;;
11287;SDS011;5700;50.996;7.044;2022-12-07T15:21:23;36.80;;;14.82;;
11287;SDS011;5700;50.996;7.044;2022-12-07T15:24:25;14.93;;;8.98;;
11287;SDS011;5700;50.996;7.044;2022-12-07T15:27:26;16.05;;;9.68;;
11287;SDS011;5700;50.996;7.044;2022-12-07T15:30:28;23.77;;;11.13;;
11287;SDS011;5700;50.996;7.044;2022-12-07T15:33:31;14.88;;;8.48;;
11287;SDS011;5700;50.996;7.044;2022-12-07T15:36:32;19.15;;;10.80;;
11287;SDS011;5700;50.996;7.044;2022-12-07T15:39:35;10.90;;;5.63;;
11287;SDS011;5700;50.996;7.044;2022-12-07T15:42:36;15.43;;;8.93;;
11287;SDS011;5700;50.996;7.044;2022-12-07T15:45:38;17.52;;;9.27;;
11287;SDS011;5700;50.996;7.044;2022-12-07T15:48:40;17.35;;;10.18;;
11287;SDS011;5700;50.996;7.044;2022-12-07T15:51:41;18.70;;;8.95;;
11287;SDS011;5700;50.996;7.044;2022-12-07T15:54:43;23.70;;;11.15;;
11287;SDS011;5700;50.996;7.044;2022-12-07T15:57:45;8.20;;;4.90;;
11287;SDS011;5700;50.996;7.044;2022-12-07T16:00:46;21.88;;;13.30;;
11287;SDS011;5700;50.996;7.044;2022-12-07T16:03:49;21.30;;;11.10;;
11287;SDS011;5700;50.996;7.044;2022-12-07T16:06:50;38.03;;;18.45;;
11287;SDS011;5700;50.996;7.044;2022-12-07T16:09:52;17.02;;;7.28;;
11287;SDS011;5700;50.996;7.044;2022-12-07T16:12:53;53.40;;;23.45;;
11287;SDS011;5700;50.996;7.044;2022-12-07T16:15:54;14.93;;;7.75;;
11287;SDS011;5700;50.996;7.044;2022-12-07T16:18:57;12.23;;;4.80;;
11287;SDS011;5700;50.996;7.044;2022-12-07T16:21:59;9.77;;;4.30;;
11287;SDS011;5700;50.996;7.044;2022-12-07T16:25:00;9.15;;;3.88;;
11287;SDS011;5700;50.996;7.044;2022-12-07T16:28:01;9.23;;;4.35;;
11287;SDS011;5700;50.996;7.044;2022-12-07T16:31:03;12.60;;;6.03;;
11287;SDS011;5700;50.996;7.044;2022-12-07T16:34:08;8.18;;;4.90;;
11287;SDS011;5700;50.996;7.044;2022-12-07T16:37:10;9.07;;;5.10;;
11287;SDS011;5700;50.996;7.044;2022-12-07T16:40:11;7.85;;;4.65;;
11287;SDS011;5700;50.996;7.044;2022-12-07T16:43:13;10.32;;;5.75;;
11287;SDS011;5700;50.996;7.044;2022-12-07T16:46:16;9.30;;;5.60;;
11287;SDS011;5700;50.996;7.044;2022-12-07T16:49:19;10.82;;;6.13;;
11287;SDS011;5700;50.996;7.044;2022-12-07T16:52:20;10.45;;;5.72;;
11287;SDS011;5700;50.996;7.044;2022-12-07T16:55:22;10.13;;;6.07;;
11287;SDS011;5700;50.996;7.044;2022-12-07T16:58:23;11.32;;;6.43;;
11287;SDS011;5700;50.996;7.044;2022-12-07T17:01:25;14.55;;;5.88;;
11287;SDS011;5700;50.996;7.044;2022-12-07T17:04:29;11.52;;;6.22;;
11287;SDS011;5700;50.996;7.044;2022-12-07T17:07:32;11.18;;;5.05;;
11287;SDS011;5700;50.996;7.044;2022-12-07T17:10:33;8.65;;;5.13;;
11287;SDS011;5700;50.996;7.044;2022-12-07T17:13:36;11.27;;;6.63;;
11287;SDS011;5700;50.996;7.044;2022-12-07T17:16:51;24.08;;;10.25;;
11287;SDS011;5700;50.996;7.044;2022-12-07T17:19:54;21.33;;;10.23;;
11287;SDS011;5700;50.996;7.044;2022-12-07T17:22:55;15.75;;;9.10;;
11287;SDS011;5700;50.996;7.044;2022-12-07T17:26:03;12.93;;;7.65;;
11287;SDS011;5700;50.996;7.044;2022-12-07T17:29:06;17.80;;;9.05;;
11287;SDS011;5700;50.996;7.044;2022-12-07T17:32:08;13.23;;;8.18;;
11287;SDS011;5700;50.996;7.044;2022-12-07T17:35:11;16.45;;;10.35;;
11287;SDS011;5700;50.996;7.044;2022-12-07T17:38:12;18.10;;;11.63;;
11287;SDS011;5700;50.996;7.044;2022-12-07T17:41:14;29.73;;;15.80;;
11287;SDS011;5700;50.996;7.044;2022-12-07T17:44:37;29.55;;;16.58;;
11287;SDS011;5700;50.996;7.044;2022-12-07T17:47:39;21.00;;;10.48;;
11287;SDS011;5700;50.996;7.044;2022-12-07T17:50:41;33.88;;;18.60;;
11287;SDS011;5700;50.996;7.044;2022-12-07T17:53:57;25.33;;;14.50;;
11287;SDS011;5700;50.996;7.044;2022-12-07T17:56:59;25.88;;;14.88;;
11287;SDS011;5700;50.996;7.044;2022-12-07T18:00:01;16.02;;;9.70;;
11287;SDS011;5700;50.996;7.044;2022-12-07T18:03:03;17.05;;;9.70;;
11287;SDS011;5700;50.996;7.044;2022-12-07T18:06:09;23.50;;;9.82;;
11287;SDS011;5700;50.996;7.044;2022-12-07T18:09:11;15.77;;;9.00;;
11287;SDS011;5700;50.996;7.044;2022-12-07T18:12:12;14.48;;;8.10;;
11287;SDS011;5700;50.996;7.044;2022-12-07T18:15:14;14.70;;;8.23;;
11287;SDS011;5700;50.996;7.044;2022-12-07T18:18:15;97.00;;;37.67;;
11287;SDS011;5700;50.996;7.044;2022-12-07T18:21:19;71.80;;;35.70;;
11287;SDS011;5700;50.996;7.044;2022-12-07T18:24:21;23.08;;;13.15;;
11287;SDS011;5700;50.996;7.044;2022-12-07T18:27:22;21.13;;;11.60;;
11287;SDS011;5700;50.996;7.044;2022-12-07T18:30:24;22.83;;;12.77;;
11287;SDS011;5700;50.996;7.044;2022-12-07T18:33:25;17.90;;;10.82;;